Terminal Aerodrome Forecast
Issued by NWS Cleveland, OH

Home | Current Version | Previous Version | Graphics & Text | Print | Product List | Glossary On
Versions: 1 2 3 4 5 6 7 8 9 10 11 12 13 14
000
FTUS41 KCLE 191137
TAFYNG
TAF
KYNG 191137Z 1912/2012 15012KT P6SM SCT035 BKN060 WS020/21040KT
      TEMPO 1912/1915 4SM -SHRA BKN020
     FM191500 18011KT 3SM -SHRA BKN006 OVC020 WS020/22045KT
     FM192200 19010G18KT 6SM BR VCSH BKN009 OVC040=

USA.gov is the U.S. government's official web portal to all federal, state and local government web resources and services.